Pittsburgh, Pennsylvania
Traffic Map
Current Weather Conditions
Pittsburgh, Pennsylvania
Overcast
Overcast
42°
Feels Like: 35°
Wind Chill: 35° Ceiling: 4100
Heat Index: 42° Visibility: 10mi
Dew Point: 30° Wind: 15mph
Humidity: 62% Direction: 350° (N)
Pressure: 29.99in Gusts: 21mph
Raw Report DataKAGC 280153Z AUTO 35013G18KT 10SM BKN041 OVC048 06/M01 A2999 RMK AO2 SLP166 T00561011 TSNO
Traffic Incident Summary
Active as of:
Severity:
Category:
InformationThere was an issue retrieving the traffic information for this location. Please try a different location or try again shortly.
Advertisements
Track Severe Weather on mobile